createdAt,value
2023-05-19T00:01:00.431Z,7.85
2023-05-19T00:03:27.434Z,7.91
2023-05-19T00:05:54.453Z,7.80
2023-05-19T00:08:23.563Z,8.13
2023-05-19T00:10:50.673Z,8.38
2023-05-19T00:13:17.586Z,8.58
2023-05-19T00:15:44.653Z,8.66
2023-05-19T00:18:14.006Z,8.75
2023-05-19T00:20:41.387Z,8.82
2023-05-19T00:23:08.200Z,8.90
2023-05-19T00:25:34.866Z,9.01
2023-05-19T00:28:02.467Z,9.00
2023-05-19T00:30:30.450Z,8.99
2023-05-19T00:32:57.419Z,8.27
2023-05-19T00:35:24.615Z,6.60
2023-05-19T00:37:51.231Z,7.32
2023-05-19T00:40:18.951Z,7.27
2023-05-19T00:42:45.716Z,7.15
2023-05-19T00:45:12.430Z,6.53
2023-05-19T00:47:39.522Z,7.16
2023-05-19T00:50:06.914Z,7.24
2023-05-19T00:52:33.792Z,7.38
2023-05-19T00:55:00.924Z,7.47
2023-05-19T00:57:28.315Z,7.79
2023-05-19T00:59:55.468Z,7.86
2023-05-19T01:02:22.246Z,8.03
2023-05-19T01:04:51.148Z,7.30
2023-05-19T01:07:18.871Z,4.21
2023-05-19T01:09:47.361Z,6.66
2023-05-19T01:12:14.298Z,6.90
2023-05-19T01:14:41.758Z,6.04
2023-05-19T01:17:18.784Z,6.70
2023-05-19T01:20:08.276Z,6.78
2023-05-19T01:23:15.060Z,6.75
2023-05-19T01:25:50.739Z,6.89
2023-05-19T01:28:57.741Z,7.26
2023-05-19T01:31:26.732Z,7.34
2023-05-19T01:33:54.587Z,7.18
2023-05-19T01:36:23.362Z,6.11
2023-05-19T01:38:56.797Z,6.93
2023-05-19T01:41:26.244Z,7.18
2023-05-19T01:43:54.277Z,7.25
2023-05-19T01:46:22.246Z,6.80
2023-05-19T01:48:49.403Z,6.76
2023-05-19T01:51:16.060Z,6.71
2023-05-19T01:53:42.911Z,6.81
2023-05-19T01:56:09.834Z,6.91
2023-05-19T01:58:48.156Z,7.04
2023-05-19T02:01:36.630Z,7.24
2023-05-19T02:04:30.485Z,7.59
2023-05-19T02:07:05.338Z,7.42
2023-05-19T02:09:35.593Z,7.11
2023-05-19T02:12:11.011Z,7.16
2023-05-19T02:14:52.811Z,6.98
2023-05-19T02:17:20.828Z,4.99
2023-05-19T02:19:47.694Z,6.03
2023-05-19T02:22:14.914Z,6.89
2023-05-19T02:24:41.601Z,6.11
2023-05-19T02:27:08.359Z,6.65
2023-05-19T02:29:35.002Z,6.67
2023-05-19T02:32:02.148Z,6.66
2023-05-19T02:34:28.958Z,6.60
2023-05-19T02:36:56.564Z,6.88
2023-05-19T02:39:23.313Z,6.90
2023-05-19T02:41:50.084Z,6.69
2023-05-19T02:44:16.783Z,6.68
2023-05-19T02:46:43.634Z,6.60
2023-05-19T02:49:11.215Z,6.75
2023-05-19T02:51:39.094Z,6.96
2023-05-19T02:54:05.867Z,6.97
2023-05-19T02:56:32.599Z,7.06
2023-05-19T02:58:59.290Z,7.07
2023-05-19T03:01:26.358Z,7.16
2023-05-19T03:03:53.231Z,7.27
2023-05-19T03:06:20.012Z,7.26
2023-05-19T03:08:46.741Z,7.30
2023-05-19T03:11:13.649Z,7.52
2023-05-19T03:13:40.282Z,7.78
2023-05-19T03:16:08.036Z,7.89
2023-05-19T03:18:35.150Z,6.86
2023-05-19T03:21:01.885Z,7.22
2023-05-19T03:23:28.563Z,7.61
2023-05-19T03:25:56.289Z,6.94
2023-05-19T03:28:23.502Z,7.02
2023-05-19T03:30:50.948Z,7.18
2023-05-19T03:33:20.806Z,7.59
2023-05-19T03:35:47.873Z,7.70
2023-05-19T03:38:15.404Z,7.85
2023-05-19T03:40:49.491Z,7.90
2023-05-19T03:43:16.338Z,8.11
2023-05-19T03:45:51.798Z,8.35
2023-05-19T03:48:53.851Z,8.11
2023-05-19T03:51:23.416Z,8.09
2023-05-19T03:53:54.030Z,8.55
2023-05-19T03:56:23.087Z,8.37
2023-05-19T03:58:49.935Z,8.57
2023-05-19T04:01:16.636Z,8.90
2023-05-19T04:03:43.347Z,8.93
2023-05-19T04:06:10.130Z,8.86
2023-05-19T04:08:36.831Z,8.26
2023-05-19T04:11:03.673Z,8.81
2023-05-19T04:13:33.151Z,8.24
2023-05-19T04:16:00.028Z,8.98
2023-05-19T04:18:28.817Z,8.49
2023-05-19T04:20:55.832Z,9.15
2023-05-19T04:23:22.573Z,9.03
2023-05-19T04:25:49.762Z,8.70
2023-05-19T04:28:16.590Z,8.64
2023-05-19T04:30:43.283Z,9.04
2023-05-19T04:33:09.987Z,9.10
2023-05-19T04:35:38.209Z,8.97
2023-05-19T04:38:05.851Z,9.02
2023-05-19T04:40:33.954Z,9.12
2023-05-19T04:43:02.375Z,9.15
2023-05-19T04:45:30.327Z,8.95
2023-05-19T04:48:00.149Z,8.56
2023-05-19T04:50:28.627Z,9.28
2023-05-19T04:52:58.935Z,8.82
2023-05-19T04:55:26.077Z,9.16
2023-05-19T04:57:53.254Z,9.19
2023-05-19T05:00:21.298Z,9.35
2023-05-19T05:02:58.744Z,9.40
2023-05-19T05:05:28.370Z,9.34
2023-05-19T05:07:55.491Z,9.28
2023-05-19T05:10:24.137Z,9.38
2023-05-19T05:12:51.614Z,9.50
2023-05-19T05:15:18.842Z,9.65
2023-05-19T05:17:48.760Z,9.65
2023-05-19T05:20:16.414Z,9.73
2023-05-19T05:22:43.351Z,9.79
2023-05-19T05:25:10.958Z,9.17
2023-05-19T05:27:38.194Z,9.86
2023-05-19T05:30:07.402Z,9.84
2023-05-19T05:32:34.368Z,9.87
2023-05-19T05:35:03.315Z,9.94
2023-05-19T05:37:31.372Z,9.77
2023-05-19T05:39:58.192Z,9.98
2023-05-19T05:42:25.861Z,10.00
2023-05-19T05:44:53.832Z,9.65
2023-05-19T05:47:20.906Z,9.64
2023-05-19T05:49:48.670Z,9.76
2023-05-19T05:52:18.740Z,9.89
2023-05-19T05:54:47.935Z,9.98
2023-05-19T05:57:17.557Z,10.10
2023-05-19T05:59:47.072Z,10.19
2023-05-19T06:02:14.700Z,10.22
2023-05-19T06:04:41.832Z,10.25
2023-05-19T06:07:08.928Z,10.21
2023-05-19T06:09:37.936Z,10.29
2023-05-19T06:12:06.836Z,10.36
2023-05-19T06:14:38.911Z,10.32
2023-05-19T06:17:11.502Z,10.52
2023-05-19T06:19:38.511Z,10.38
2023-05-19T06:22:05.520Z,10.61
2023-05-19T06:24:33.128Z,10.52
2023-05-19T06:26:59.784Z,10.64
2023-05-19T06:29:26.657Z,10.72
2023-05-19T06:31:55.746Z,10.75
2023-05-19T06:34:22.505Z,10.76
2023-05-19T06:36:49.247Z,10.46
2023-05-19T06:39:18.269Z,10.93
2023-05-19T06:41:45.680Z,10.91
2023-05-19T06:44:24.522Z,10.96
2023-05-19T06:46:51.272Z,10.94
2023-05-19T06:49:18.069Z,10.97
2023-05-19T06:51:46.111Z,10.83
2023-05-19T06:54:16.006Z,10.76
2023-05-19T06:56:42.952Z,10.70
2023-05-19T06:59:10.454Z,10.99
2023-05-19T07:01:38.758Z,10.76
2023-05-19T07:04:06.165Z,10.85
2023-05-19T07:06:33.972Z,11.17
2023-05-19T07:09:01.113Z,10.61
2023-05-19T07:11:28.606Z,10.29
2023-05-19T07:13:55.739Z,11.03
2023-05-19T07:16:27.328Z,10.60
2023-05-19T07:18:55.323Z,10.70
2023-05-19T07:21:22.281Z,8.35
2023-05-19T07:23:50.093Z,10.98
2023-05-19T07:26:16.816Z,11.03
2023-05-19T07:28:43.630Z,10.90
2023-05-19T07:31:10.377Z,10.91
2023-05-19T07:33:37.124Z,11.01
2023-05-19T07:36:04.615Z,11.12
2023-05-19T07:38:34.510Z,10.70
2023-05-19T07:41:02.085Z,11.29
2023-05-19T07:43:28.772Z,11.37
2023-05-19T07:45:56.431Z,11.40
2023-05-19T07:48:25.645Z,11.50
2023-05-19T07:50:53.373Z,11.58
2023-05-19T07:53:20.605Z,11.61
2023-05-19T07:55:47.493Z,11.17
2023-05-19T07:58:14.802Z,11.21
2023-05-19T08:00:43.224Z,11.80
2023-05-19T08:03:10.243Z,11.17
2023-05-19T08:05:37.561Z,11.92
2023-05-19T08:08:04.661Z,11.54
2023-05-19T08:10:31.607Z,11.40
2023-05-19T08:12:58.508Z,11.77
2023-05-19T08:15:25.555Z,11.98
2023-05-19T08:17:52.574Z,11.99
2023-05-19T08:20:19.417Z,12.06
2023-05-19T08:22:46.215Z,12.17
2023-05-19T08:25:13.891Z,12.23
2023-05-19T08:27:41.436Z,12.41
2023-05-19T08:30:08.842Z,12.45
2023-05-19T08:32:35.761Z,12.40
2023-05-19T08:35:02.488Z,12.32
2023-05-19T08:37:29.181Z,12.54
2023-05-19T08:39:55.811Z,12.58
2023-05-19T08:42:22.971Z,12.41
2023-05-19T08:44:49.741Z,12.24
2023-05-19T08:47:17.850Z,12.70
2023-05-19T08:49:46.239Z,12.79
2023-05-19T08:52:21.020Z,12.81
2023-05-19T08:54:55.869Z,12.76
2023-05-19T08:57:24.939Z,12.83
2023-05-19T08:59:52.238Z,12.07
2023-05-19T09:02:19.925Z,12.88
2023-05-19T09:04:48.132Z,12.84
2023-05-19T09:07:15.588Z,13.06
2023-05-19T09:09:44.077Z,12.67
2023-05-19T09:12:11.714Z,13.18
2023-05-19T09:14:38.855Z,13.19
2023-05-19T09:17:06.004Z,13.26
2023-05-19T09:19:33.066Z,13.38
2023-05-19T09:22:01.460Z,13.41
2023-05-19T09:24:28.571Z,13.20
2023-05-19T09:27:00.202Z,13.43
2023-05-19T09:29:27.232Z,13.36
2023-05-19T09:32:00.521Z,13.34
2023-05-19T09:34:27.768Z,13.38
2023-05-19T09:36:54.644Z,13.42
2023-05-19T09:39:23.120Z,13.36
2023-05-19T09:41:54.218Z,13.38
2023-05-19T09:44:21.144Z,13.39
2023-05-19T09:46:51.826Z,13.36
2023-05-19T09:49:22.916Z,13.31
2023-05-19T09:51:51.232Z,13.34
2023-05-19T09:54:20.424Z,13.35
2023-05-19T09:56:53.169Z,13.42
2023-05-19T09:59:23.887Z,13.39
2023-05-19T10:01:53.483Z,13.31
2023-05-19T10:04:21.132Z,13.20
2023-05-19T10:06:53.490Z,13.22
2023-05-19T10:09:26.433Z,13.22
2023-05-19T10:11:54.673Z,13.31
2023-05-19T10:14:28.704Z,13.32
2023-05-19T10:16:57.693Z,13.43
2023-05-19T10:19:26.262Z,13.39
2023-05-19T10:21:54.073Z,13.56
2023-05-19T10:24:21.698Z,13.34
2023-05-19T10:26:53.410Z,13.38
2023-05-19T10:29:25.552Z,13.35
2023-05-19T10:31:54.289Z,13.48
2023-05-19T10:34:25.987Z,13.47
2023-05-19T10:37:25.017Z,13.52
2023-05-19T10:39:52.552Z,13.38
2023-05-19T10:42:38.064Z,13.62
2023-05-19T10:45:17.039Z,13.60
2023-05-19T10:47:44.631Z,13.57
2023-05-19T10:50:12.072Z,13.58
2023-05-19T10:52:39.789Z,13.58
2023-05-19T10:55:17.666Z,13.55
2023-05-19T10:57:56.791Z,13.49
2023-05-19T11:00:28.261Z,13.67
2023-05-19T11:03:13.574Z,13.81
2023-05-19T11:05:40.626Z,13.88
2023-05-19T11:08:12.083Z,13.74
2023-05-19T11:10:39.226Z,13.87
2023-05-19T11:13:06.797Z,14.04
2023-05-19T11:15:39.094Z,14.06
2023-05-19T11:18:06.185Z,14.04
2023-05-19T11:20:35.071Z,14.13
2023-05-19T11:23:06.841Z,14.25
2023-05-19T11:25:54.378Z,14.26
2023-05-19T11:28:28.042Z,14.32
2023-05-19T11:30:57.802Z,14.37
2023-05-19T11:33:27.583Z,14.50
2023-05-19T11:35:58.528Z,14.32
2023-05-19T11:38:26.440Z,14.02
2023-05-19T11:40:54.142Z,14.45
2023-05-19T11:43:24.993Z,14.40
2023-05-19T11:45:52.069Z,13.98
2023-05-19T11:48:22.656Z,14.55
2023-05-19T11:50:50.206Z,14.61
2023-05-19T11:53:17.646Z,14.58
2023-05-19T11:55:49.037Z,14.57
2023-05-19T11:58:16.780Z,14.59
2023-05-19T12:00:46.725Z,14.57
2023-05-19T12:03:13.735Z,14.64
2023-05-19T12:05:45.921Z,14.57
2023-05-19T12:08:13.448Z,14.66
2023-05-19T12:10:40.573Z,14.65
2023-05-19T12:13:10.692Z,14.83
2023-05-19T12:15:37.825Z,14.70
2023-05-19T12:18:04.687Z,14.92
2023-05-19T12:20:32.617Z,14.95
2023-05-19T12:23:00.807Z,14.68
2023-05-19T12:25:29.227Z,14.93
2023-05-19T12:28:03.247Z,14.94
2023-05-19T12:30:33.099Z,14.91
2023-05-19T12:33:01.994Z,14.84
2023-05-19T12:35:32.130Z,14.95
2023-05-19T12:38:03.661Z,15.02
2023-05-19T12:40:30.642Z,15.01
2023-05-19T12:42:59.317Z,15.03
2023-05-19T12:45:28.587Z,15.01
2023-05-19T12:47:56.008Z,14.25
2023-05-19T12:50:30.877Z,14.84
2023-05-19T12:52:59.816Z,15.14
2023-05-19T12:55:27.029Z,15.00
2023-05-19T12:57:56.973Z,15.11
2023-05-19T13:00:32.628Z,15.08
2023-05-19T13:03:02.859Z,14.39
2023-05-19T13:05:34.313Z,15.03
2023-05-19T13:08:02.314Z,15.02
2023-05-19T13:10:31.337Z,14.19
2023-05-19T13:13:17.447Z,14.99
2023-05-19T13:16:03.196Z,14.04
2023-05-19T13:18:48.263Z,14.92
2023-05-19T13:21:15.817Z,14.94
2023-05-19T13:23:42.522Z,14.96
2023-05-19T13:26:11.531Z,14.94
2023-05-19T13:28:38.197Z,14.79
2023-05-19T13:31:05.038Z,14.74
2023-05-19T13:33:32.132Z,14.75
2023-05-19T13:35:58.868Z,14.53
2023-05-19T13:38:25.574Z,14.46
2023-05-19T13:40:52.383Z,14.30
2023-05-19T13:43:19.058Z,14.77
2023-05-19T13:45:45.833Z,14.36
2023-05-19T13:48:13.133Z,14.55
2023-05-19T13:50:40.031Z,14.86
2023-05-19T13:53:06.817Z,14.33
2023-05-19T13:55:33.674Z,14.57
2023-05-19T13:58:00.475Z,14.77
2023-05-19T14:00:27.280Z,14.78
2023-05-19T14:02:54.040Z,14.24
2023-05-19T14:05:20.909Z,14.87
2023-05-19T14:07:47.654Z,14.87
2023-05-19T14:10:14.477Z,14.70
2023-05-19T14:13:06.496Z,14.34
2023-05-19T14:15:28.261Z,14.39
2023-05-19T14:17:55.114Z,14.78
2023-05-19T14:20:22.072Z,14.38
2023-05-19T14:22:48.764Z,14.38
2023-05-19T14:25:15.739Z,14.72
2023-05-19T14:27:42.481Z,14.88
2023-05-19T14:30:09.730Z,13.31
2023-05-19T14:32:36.610Z,14.92
2023-05-19T14:35:03.766Z,14.87
2023-05-19T14:37:31.911Z,14.87
2023-05-19T14:39:59.677Z,14.32
2023-05-19T14:42:26.347Z,14.70
2023-05-19T14:44:53.107Z,14.94
2023-05-19T14:47:19.917Z,14.96
2023-05-19T14:49:46.921Z,14.83
2023-05-19T14:52:13.613Z,14.78
2023-05-19T14:54:40.441Z,14.81
2023-05-19T14:57:08.222Z,14.79
2023-05-19T14:59:38.519Z,14.86
2023-05-19T15:02:06.113Z,14.81
2023-05-19T15:04:32.844Z,14.85
2023-05-19T15:07:09.839Z,14.75
2023-05-19T15:09:37.523Z,14.82
2023-05-19T15:12:04.346Z,14.80
2023-05-19T15:14:31.428Z,14.26
2023-05-19T15:16:58.711Z,14.75
2023-05-19T15:19:26.178Z,14.79
2023-05-19T15:21:53.191Z,14.76
2023-05-19T15:24:20.982Z,14.65
2023-05-19T15:26:47.858Z,14.83
2023-05-19T15:29:14.628Z,14.76
2023-05-19T15:31:41.643Z,14.73
2023-05-19T15:34:08.736Z,14.80
2023-05-19T15:36:35.588Z,14.76
2023-05-19T15:39:03.729Z,14.76
2023-05-19T15:41:30.814Z,14.77
2023-05-19T15:44:00.156Z,14.65
2023-05-19T15:46:27.238Z,14.63
2023-05-19T15:48:54.037Z,14.68
2023-05-19T15:51:21.017Z,14.22
2023-05-19T15:53:48.032Z,14.66
2023-05-19T15:56:14.833Z,14.62
2023-05-19T15:58:41.649Z,14.41
2023-05-19T16:01:08.797Z,13.98
2023-05-19T16:03:35.756Z,14.67
2023-05-19T16:06:02.710Z,14.07
2023-05-19T16:08:29.689Z,14.64
2023-05-19T16:10:56.403Z,14.64
2023-05-19T16:13:23.235Z,14.44
2023-05-19T16:15:50.060Z,14.52
2023-05-19T16:18:16.991Z,14.52
2023-05-19T16:20:44.127Z,14.58
2023-05-19T16:23:10.954Z,14.48
2023-05-19T16:25:37.711Z,14.13
2023-05-19T16:28:05.128Z,13.82
2023-05-19T16:30:32.231Z,14.57
2023-05-19T16:32:59.637Z,14.60
2023-05-19T16:35:29.384Z,14.62
2023-05-19T16:37:56.258Z,14.64
2023-05-19T16:40:23.025Z,14.54
2023-05-19T16:42:49.876Z,14.47
2023-05-19T16:45:17.538Z,14.38
2023-05-19T16:47:45.541Z,14.21
2023-05-19T16:50:12.987Z,14.10
2023-05-19T16:52:39.808Z,14.49
2023-05-19T16:55:07.127Z,14.46
2023-05-19T16:57:33.932Z,14.11
2023-05-19T17:00:00.699Z,14.47
2023-05-19T17:02:28.216Z,14.45
2023-05-19T17:04:55.469Z,14.36
2023-05-19T17:07:22.175Z,14.31
2023-05-19T17:09:49.113Z,14.51
2023-05-19T17:12:15.992Z,14.51
2023-05-19T17:14:43.589Z,14.35
2023-05-19T17:17:11.036Z,14.45
2023-05-19T17:19:37.952Z,14.49
2023-05-19T17:22:04.729Z,14.45
2023-05-19T17:24:33.812Z,14.46
2023-05-19T17:27:01.034Z,13.97
2023-05-19T17:29:28.065Z,14.28
2023-05-19T17:31:55.478Z,14.31
2023-05-19T17:34:22.331Z,14.36
2023-05-19T17:36:49.803Z,14.57
2023-05-19T17:39:16.688Z,14.63
2023-05-19T17:41:43.400Z,14.56
2023-05-19T17:44:11.186Z,14.51
2023-05-19T17:46:39.383Z,14.42
2023-05-19T17:49:06.603Z,14.44
2023-05-19T17:51:33.637Z,14.30
2023-05-19T17:54:00.769Z,14.41
2023-05-19T17:56:32.052Z,14.19
2023-05-19T17:58:59.212Z,14.21
2023-05-19T18:01:26.306Z,14.20
2023-05-19T18:03:53.600Z,14.22
2023-05-19T18:06:20.593Z,14.21
2023-05-19T18:08:50.405Z,14.19
2023-05-19T18:11:18.245Z,14.12
2023-05-19T18:13:45.028Z,14.21
2023-05-19T18:16:12.771Z,14.12
2023-05-19T18:18:43.398Z,14.08
2023-05-19T18:21:17.660Z,13.49
2023-05-19T18:23:45.472Z,13.94
2023-05-19T18:26:13.114Z,13.55
2023-05-19T18:28:41.305Z,13.93
2023-05-19T18:31:17.190Z,12.93
2023-05-19T18:33:47.037Z,13.78
2023-05-19T18:36:16.370Z,13.71
2023-05-19T18:38:43.117Z,13.93
2023-05-19T18:41:09.846Z,13.96
2023-05-19T18:43:36.536Z,13.89
2023-05-19T18:46:03.288Z,13.85
2023-05-19T18:48:30.205Z,13.74
2023-05-19T18:50:57.204Z,13.66
2023-05-19T18:53:23.959Z,13.30
2023-05-19T18:55:50.895Z,13.55
2023-05-19T18:58:18.194Z,13.46
2023-05-19T19:00:45.179Z,13.35
2023-05-19T19:03:12.211Z,13.70
2023-05-19T19:05:40.111Z,13.74
2023-05-19T19:08:07.090Z,13.52
2023-05-19T19:10:37.291Z,13.34
2023-05-19T19:13:04.285Z,13.72
2023-05-19T19:15:31.667Z,13.59
2023-05-19T19:17:58.513Z,12.47
2023-05-19T19:20:25.554Z,13.37
2023-05-19T19:22:52.924Z,13.38
2023-05-19T19:25:21.296Z,12.55
2023-05-19T19:27:50.671Z,13.29
2023-05-19T19:30:17.523Z,13.18
2023-05-19T19:32:44.391Z,13.19
2023-05-19T19:35:11.264Z,13.11
2023-05-19T19:37:38.024Z,13.16
2023-05-19T19:40:05.401Z,13.12
2023-05-19T19:42:32.438Z,12.65
2023-05-19T19:44:59.348Z,13.05
2023-05-19T19:47:27.231Z,12.81
2023-05-19T19:49:54.011Z,12.79
2023-05-19T19:52:20.749Z,12.56
2023-05-19T19:54:48.121Z,12.97
2023-05-19T19:57:17.204Z,12.86
2023-05-19T19:59:44.097Z,12.41
2023-05-19T20:02:10.985Z,13.01
2023-05-19T20:04:38.104Z,12.73
2023-05-19T20:07:05.059Z,12.88
2023-05-19T20:09:31.792Z,12.78
2023-05-19T20:11:58.720Z,12.76
2023-05-19T20:14:25.505Z,12.72
2023-05-19T20:16:52.302Z,12.71
2023-05-19T20:19:19.011Z,12.72
2023-05-19T20:21:45.760Z,12.79
2023-05-19T20:24:12.552Z,12.75
2023-05-19T20:26:39.350Z,12.76
2023-05-19T20:29:06.053Z,12.49
2023-05-19T20:31:32.785Z,12.66
2023-05-19T20:34:00.133Z,12.66
2023-05-19T20:36:28.290Z,12.78
2023-05-19T20:38:55.034Z,12.84
2023-05-19T20:41:22.581Z,12.84
2023-05-19T20:43:49.305Z,12.76
2023-05-19T20:46:16.236Z,12.67
2023-05-19T20:48:43.040Z,12.64
2023-05-19T20:51:09.797Z,12.63
2023-05-19T20:53:36.640Z,12.60
2023-05-19T20:56:05.231Z,12.56
2023-05-19T20:58:32.057Z,12.65
2023-05-19T21:00:58.910Z,12.37
2023-05-19T21:03:27.112Z,12.62
2023-05-19T21:05:54.993Z,12.60
2023-05-19T21:08:22.077Z,12.58
2023-05-19T21:10:48.832Z,12.00
2023-05-19T21:13:15.662Z,12.75
2023-05-19T21:15:42.328Z,12.21
2023-05-19T21:18:11.357Z,12.06
2023-05-19T21:20:38.768Z,12.57
2023-05-19T21:23:05.779Z,12.31
2023-05-19T21:25:32.511Z,12.47
2023-05-19T21:27:59.458Z,12.47
2023-05-19T21:30:26.192Z,12.28
2023-05-19T21:32:53.305Z,12.57
2023-05-19T21:35:20.088Z,12.32
2023-05-19T21:37:46.743Z,12.36
2023-05-19T21:40:13.493Z,12.52
2023-05-19T21:42:40.186Z,12.35
2023-05-19T21:45:07.527Z,12.36
2023-05-19T21:47:34.232Z,11.94
2023-05-19T21:50:01.133Z,12.50
2023-05-19T21:52:31.384Z,12.50
2023-05-19T21:54:58.381Z,12.44
2023-05-19T21:57:25.283Z,11.96
2023-05-19T21:59:52.018Z,11.82
2023-05-19T22:02:18.736Z,12.38
2023-05-19T22:04:45.756Z,12.33
2023-05-19T22:07:12.421Z,12.41
2023-05-19T22:09:39.234Z,12.43
2023-05-19T22:12:06.523Z,12.38
2023-05-19T22:14:33.329Z,12.39
2023-05-19T22:17:00.168Z,12.24
2023-05-19T22:19:26.896Z,12.20
2023-05-19T22:22:01.739Z,12.43
2023-05-19T22:24:33.031Z,12.52
2023-05-19T22:26:59.745Z,12.58
2023-05-19T22:29:26.407Z,12.56
2023-05-19T22:31:53.111Z,12.55
2023-05-19T22:34:19.981Z,12.46
2023-05-19T22:36:46.776Z,12.50
2023-05-19T22:39:13.612Z,12.55
2023-05-19T22:41:40.748Z,12.50
2023-05-19T22:44:09.111Z,12.28
2023-05-19T22:46:36.205Z,12.51
2023-05-19T22:49:03.186Z,12.55
2023-05-19T22:51:29.894Z,11.75
2023-05-19T22:53:56.651Z,12.51
2023-05-19T22:56:23.402Z,12.30
2023-05-19T22:58:50.519Z,12.46
2023-05-19T23:01:17.429Z,11.59
2023-05-19T23:03:44.589Z,12.49
2023-05-19T23:06:11.433Z,12.25
2023-05-19T23:08:38.062Z,12.38
2023-05-19T23:11:04.809Z,12.44
2023-05-19T23:13:31.751Z,12.44
2023-05-19T23:15:58.476Z,12.37
2023-05-19T23:18:25.244Z,12.43
2023-05-19T23:20:51.875Z,12.49
2023-05-19T23:23:19.258Z,12.48
2023-05-19T23:25:46.084Z,12.45
2023-05-19T23:28:12.795Z,12.31
2023-05-19T23:30:39.687Z,12.24
2023-05-19T23:33:06.497Z,11.83
2023-05-19T23:35:33.451Z,12.41
2023-05-19T23:38:00.395Z,12.48
2023-05-19T23:40:27.096Z,12.53
2023-05-19T23:42:53.819Z,12.49
2023-05-19T23:45:20.580Z,12.59
2023-05-19T23:47:47.310Z,12.60
2023-05-19T23:50:13.989Z,12.63
2023-05-19T23:52:40.752Z,12.54
2023-05-19T23:55:08.312Z,12.52
2023-05-19T23:57:35.069Z,12.55
